Erzincan, Turkey
Current Conditions -  °F | °C
As of 3:04 PM on Monday 26 Jan 2015 (Local Time) from LTCD Reporting Station
Light Snow Light Snow  
Wind Chill: 31°   Ceiling: 9000
Heat Index: 36°   Visibility: 6mi
Dew Point: 28°   Wind: 6mph
Humidity: 75%   Direction: 90°E
Pressure: 30.12"   Gusts: NA
Location:  39.74°N, 39.5°E
Report Text: LTCD 261204Z 09005KT 9999 -SN SCT038 BKN090 02/M02 Q1020 NOSIG RMK RWY29 06006KT
Loading
Personal Weather Stations






























Interactive Weather Map New forecast layout! Learn more

10-Day Weather Forecast

Advertisements
Track Severe Weather on mobile